Pearces, Michigan
Current Conditions -  °F | °C
As of 4:35 AM on Friday 28 Nov 2014 (Local Time) from KOZW Reporting Station
Clear Clear  
Wind Chill: 15°   Ceiling: Unl
Heat Index: 15°   Visibility: 10mi
Dew Point:   Wind: 0mph
Humidity: 73%   Direction: NA
Pressure: 30.31"   Gusts: NA
Location:  42.7°N, 83.9305°W
Report Text: KOZW 280935Z AUTO 00000KT 10SM CLR M09/M13 A3031 RMK AO2 T10921133
Loading
Personal Weather Stations






























Interactive Weather Map New forecast layout! Learn more

10-Day Weather Forecast

Advertisements
Track Severe Weather on mobile